This is the latest recevied weather packets stored in our database for station/object OE-11372. If no packets are shown the sender has not sent any weather packets the latest 10 day(s).
| Time | Temp. | Humidity | Pressure | Rain* | Wind** | Luminosity | Snow |
|---|---|---|---|---|---|---|---|
| 1788073502 | 12.78° C | 86% | 853.9 hPa | 0 mm | - | 288 W/m² | - |
| 1788072902 | 12.78° C | 86% | 853.9 hPa | 0 mm | - | 247 W/m² | - |
| 1788072076 | 12.22° C | 88% | 853.8 hPa | 0 mm | - | 173 W/m² | - |
| 1788071703 | 11.67° C | 90% | 853.9 hPa | 0 mm | - | 107 W/m² | - |
| 1788071103 | 11.67° C | 91% | 853.9 hPa | 0 mm | - | 49 W/m² | - |
| 1788070276 | 11.11° C | 91% | 853.8 hPa | 0 mm | - | 41 W/m² | - |
| 1788069902 | 11.11° C | 91% | 853.8 hPa | 0 mm | - | 41 W/m² | - |
| 1788069303 | 11.11° C | 91% | 853.6 hPa | 0 mm | - | 33 W/m² | - |
| 1788068476 | 11.11° C | 91% | 853.7 hPa | 0 mm | - | 25 W/m² | - |
| 1788068102 | 11.11° C | 91% | 853.5 hPa | 0 mm | - | 25 W/m² | - |
| 1788067503 | 11.67° C | 91% | 853.5 hPa | 0 mm | - | 25 W/m² | - |
| 1788066676 | 11.67° C | 91% | 853.5 hPa | 0 mm | - | 16 W/m² | - |
| 1788066302 | 11.67° C | 91% | 853.2 hPa | 0 mm | - | 8 W/m² | - |
| 1788065702 | 11.67° C | 92% | 853.2 hPa | 0 mm | - | 8 W/m² | - |
| 1788064875 | 11.67° C | 91% | 853.2 hPa | 0 mm | - | 0 W/m² | - |
| 1788064502 | 11.67° C | 91% | 853.2 hPa | 0 mm | - | 0 W/m² | - |
| 1788063902 | 11.67° C | 91% | 853.2 hPa | 0 mm | - | 0 W/m² | - |
| 1788063075 | 11.67° C | 91% | 853.2 hPa | 0 mm | - | 0 W/m² | - |
| 1788062702 | 11.67° C | 90% | 853.2 hPa | 0 mm | - | 0 W/m² | - |
| 1788062102 | 12.22° C | 90% | 853.3 hPa | 0 mm | - | 0 W/m² | - |
| 1788061503 | 12.22° C | 89% | 853.3 hPa | 0 mm | - | 0 W/m² | - |
| 1788060902 | 12.78° C | 89% | 853.3 hPa | 0 mm | - | 0 W/m² | - |
| 1788060302 | 12.78° C | 89% | 853.4 hPa | 0 mm | - | 0 W/m² | - |
| 1788059476 | 12.78° C | 89% | 853.4 hPa | 0 mm | - | 0 W/m² | - |
| 1788059103 | 12.78° C | 88% | 853.2 hPa | 0 mm | - | 0 W/m² | - |
* Rain latest hour (hover to see other rain measurements)
** Current wind speed in m/s (hover to see current wind gust speed)